Time;durP1;ratioP1;P1;durP2;ratioP2;P2;SDS_P1;SDS_P2;PMS_P1;PMS_P2;Temp;Humidity;BMP_temperature;BMP_pressure;BME280_temperature;BME280_humidity;BME280_pressure;Samples;Min_cycle;Max_cycle;Signal;HPM_P1;HPM_P2
2022/01/29 00:01:16;;;;;;;45.4;33.4;;;;;;;6.1;100.0;102690;;;;
2022/01/29 00:03:16;;;;;;;45.4;33.4;;;;;;;6.0;100.0;102690;;;;
2022/01/29 00:05:16;;;;;;;45.4;33.4;;;;;;;6.1;100.0;102670;;;;
2022/01/29 00:07:16;;;;;;;45.4;33.4;;;;;;;6.0;100.0;102670;;;;
2022/01/29 00:11:17;;;;;;;47.5;34.3;;;;;;;6.1;100.0;102660;;;;
2022/01/29 00:13:16;;;;;;;47.5;34.3;;;;;;;6.0;100.0;102670;;;;
2022/01/29 00:15:16;;;;;;;47.5;34.3;;;;;;;6.1;100.0;102660;;;;
2022/01/29 00:19:16;;;;;;;47.5;34.3;;;;;;;6.0;100.0;102650;;;;
2022/01/29 00:21:16;;;;;;;47.5;34.3;;;;;;;6.1;100.0;102650;;;;
2022/01/29 00:25:16;;;;;;;47.5;34.3;;;;;;;6.2;100.0;102660;;;;
2022/01/29 00:31:16;;;;;;;45.9;34.4;;;;;;;6.3;100.0;102640;;;;
2022/01/29 00:33:16;;;;;;;45.9;34.4;;;;;;;6.1;100.0;102640;;;;
2022/01/29 00:39:16;;;;;;;45.9;34.4;;;;;;;6.2;100.0;102630;;;;
2022/01/29 00:41:16;;;;;;;45.9;34.4;;;;;;;6.1;100.0;102630;;;;
2022/01/29 00:43:17;;;;;;;45.9;34.4;;;;;;;6.2;100.0;102630;;;;
2022/01/29 00:47:16;;;;;;;45.9;34.4;;;;;;;6.1;100.0;102630;;;;
2022/01/29 00:51:16;;;;;;;51.5;36.2;;;;;;;6.2;100.0;102620;;;;
2022/01/29 00:53:16;;;;;;;51.5;36.2;;;;;;;6.1;100.0;102620;;;;
2022/01/29 00:55:17;;;;;;;51.5;36.2;;;;;;;6.2;100.0;102620;;;;
2022/01/29 00:57:16;;;;;;;51.5;36.2;;;;;;;6.1;100.0;102610;;;;
2022/01/29 01:09:16;;;;;;;51.5;36.2;;;;;;;6.0;100.0;102570;;;;
2022/01/29 01:11:16;;;;;;;51.5;37.7;;;;;;;6.1;100.0;102570;;;;
2022/01/29 01:13:16;;;;;;;51.5;37.7;;;;;;;6.0;100.0;102560;;;;
2022/01/29 01:17:16;;;;;;;51.5;37.7;;;;;;;6.1;100.0;102560;;;;
2022/01/29 01:19:16;;;;;;;51.5;37.7;;;;;;;6.0;100.0;102550;;;;
2022/01/29 01:23:16;;;;;;;51.5;37.7;;;;;;;6.1;100.0;102530;;;;
2022/01/29 01:25:16;;;;;;;51.5;37.7;;;;;;;6.2;100.0;102530;;;;
2022/01/29 01:27:16;;;;;;;51.5;37.7;;;;;;;6.1;100.0;102530;;;;
2022/01/29 01:33:17;;;;;;;57.7;40.5;;;;;;;6.2;100.0;102530;;;;
2022/01/29 01:47:16;;;;;;;57.7;40.5;;;;;;;6.1;100.0;102510;;;;
2022/01/29 01:49:16;;;;;;;57.7;40.5;;;;;;;6.0;100.0;102510;;;;
2022/01/29 01:51:16;;;;;;;55.7;40.2;;;;;;;6.1;100.0;102510;;;;
2022/01/29 02:05:16;;;;;;;55.7;40.2;;;;;;;6.2;100.0;102500;;;;
2022/01/29 02:09:17;;;;;;;55.7;40.2;;;;;;;6.1;100.0;102500;;;;
2022/01/29 02:15:16;;;;;;;54.7;39.9;;;;;;;6.2;100.0;102490;;;;
2022/01/29 02:17:16;;;;;;;54.7;39.9;;;;;;;6.1;100.0;102480;;;;
2022/01/29 02:19:16;;;;;;;54.7;39.9;;;;;;;6.2;100.0;102480;;;;
2022/01/29 02:27:16;;;;;;;54.7;39.9;;;;;;;6.1;100.0;102470;;;;
2022/01/29 02:39:18;;;;;;;54.9;38.6;;;;;;;6.2;100.0;102460;;;;
2022/01/29 02:41:16;;;;;;;54.9;38.6;;;;;;;6.1;100.0;102460;;;;
2022/01/29 02:51:16;;;;;;;50.1;37.2;;;;;;;6.0;100.0;102450;;;;
2022/01/29 02:53:16;;;;;;;50.1;37.2;;;;;;;6.1;100.0;102450;;;;
2022/01/29 02:55:16;;;;;;;50.1;37.2;;;;;;;6.0;100.0;102440;;;;
2022/01/29 02:57:16;;;;;;;50.1;37.2;;;;;;;6.1;100.0;102440;;;;
2022/01/29 03:03:16;;;;;;;50.1;37.2;;;;;;;6.0;100.0;102440;;;;
2022/01/29 03:11:19;;;;;;;54.4;38.8;;;;;;;6.1;100.0;102430;;;;
2022/01/29 03:17:16;;;;;;;54.4;38.8;;;;;;;6.0;100.0;102410;;;;
2022/01/29 03:21:16;;;;;;;54.4;38.8;;;;;;;6.1;100.0;102410;;;;
2022/01/29 03:43:25;;;;;;;48.7;36.3;;;;;;;6.2;100.0;102380;;;;
2022/01/29 03:45:19;;;;;;;48.7;36.3;;;;;;;6.1;100.0;102390;;;;
2022/01/29 03:51:16;;;;;;;48.7;35.5;;;;;;;6.0;100.0;102390;;;;
2022/01/29 03:53:16;;;;;;;48.7;35.5;;;;;;;6.1;100.0;102380;;;;
2022/01/29 03:59:16;;;;;;;48.7;35.5;;;;;;;6.2;100.0;102380;;;;
2022/01/29 04:03:16;;;;;;;48.7;35.5;;;;;;;6.1;100.0;102380;;;;
2022/01/29 04:07:16;;;;;;;48.7;35.5;;;;;;;6.2;100.0;102370;;;;
2022/01/29 04:09:17;;;;;;;48.7;35.5;;;;;;;6.1;100.0;102380;;;;
2022/01/29 04:11:16;;;;;;;59.5;38.7;;;;;;;6.2;100.0;102370;;;;
2022/01/29 04:21:16;;;;;;;59.5;38.7;;;;;;;6.1;100.0;102360;;;;
2022/01/29 04:23:16;;;;;;;59.5;38.7;;;;;;;6.2;100.0;102360;;;;
2022/01/29 04:25:16;;;;;;;59.5;38.7;;;;;;;6.3;100.0;102370;;;;
2022/01/29 04:47:16;;;;;;;60.5;39.5;;;;;;;6.4;100.0;102350;;;;
2022/01/29 04:53:16;;;;;;;54.0;37.9;;;;;;;6.3;100.0;102330;;;;
2022/01/29 04:55:16;;;;;;;54.0;37.9;;;;;;;6.4;100.0;102330;;;;
2022/01/29 05:03:16;;;;;;;54.0;37.9;;;;;;;6.3;100.0;102310;;;;
2022/01/29 05:05:16;;;;;;;54.0;37.9;;;;;;;6.4;100.0;102320;;;;
2022/01/29 05:11:17;;;;;;;56.3;37.9;;;;;;;6.5;100.0;102310;;;;
2022/01/29 05:13:21;;;;;;;56.3;37.9;;;;;;;6.4;100.0;102310;;;;
2022/01/29 05:15:25;;;;;;;56.3;37.9;;;;;;;6.5;100.0;102300;;;;
2022/01/29 05:29:16;;;;;;;58.8;38.3;;;;;;;6.6;100.0;102300;;;;
2022/01/29 05:35:16;;;;;;;58.8;38.3;;;;;;;6.5;100.0;102290;;;;
2022/01/29 05:37:16;;;;;;;58.8;38.3;;;;;;;6.6;100.0;102290;;;;
2022/01/29 05:41:16;;;;;;;58.8;38.3;;;;;;;6.7;100.0;102300;;;;
2022/01/29 05:43:16;;;;;;;58.8;38.3;;;;;;;6.6;100.0;102300;;;;
2022/01/29 05:47:16;;;;;;;58.8;38.3;;;;;;;6.7;100.0;102300;;;;
2022/01/29 05:53:16;;;;;;;61.9;40.4;;;;;;;6.6;100.0;102300;;;;
2022/01/29 05:55:16;;;;;;;61.9;40.4;;;;;;;6.7;100.0;102290;;;;
2022/01/29 06:09:16;;;;;;;69.1;45.6;;;;;;;6.8;100.0;102270;;;;
2022/01/29 06:13:16;;;;;;;69.1;45.6;;;;;;;6.9;100.0;102270;;;;
2022/01/29 06:19:16;;;;;;;69.1;45.6;;;;;;;6.8;100.0;102270;;;;
2022/01/29 06:21:16;;;;;;;69.1;45.6;;;;;;;6.9;100.0;102270;;;;
2022/01/29 06:27:16;;;;;;;69.1;45.6;;;;;;;7.0;100.0;102270;;;;
2022/01/29 06:33:16;;;;;;;68.2;44.1;;;;;;;6.9;100.0;102260;;;;
2022/01/29 06:37:16;;;;;;;68.2;44.1;;;;;;;7.0;100.0;102250;;;;
2022/01/29 06:41:16;;;;;;;68.2;44.1;;;;;;;7.1;100.0;102250;;;;
2022/01/29 06:43:16;;;;;;;68.2;44.1;;;;;;;7.0;100.0;102250;;;;
2022/01/29 06:57:16;;;;;;;65.4;45.0;;;;;;;7.1;100.0;102230;;;;
2022/01/29 06:59:16;;;;;;;65.4;45.0;;;;;;;7.0;100.0;102230;;;;
2022/01/29 07:01:16;;;;;;;65.4;45.0;;;;;;;7.1;100.0;102230;;;;
2022/01/29 07:05:16;;;;;;;65.4;45.0;;;;;;;7.2;100.0;102230;;;;
2022/01/29 07:15:16;;;;;;;64.7;44.7;;;;;;;7.3;100.0;102220;;;;
2022/01/29 07:17:17;;;;;;;64.7;44.7;;;;;;;7.2;100.0;102220;;;;
2022/01/29 07:21:16;;;;;;;64.7;44.7;;;;;;;7.4;100.0;102220;;;;
2022/01/29 07:25:16;;;;;;;64.7;44.7;;;;;;;7.3;100.0;102220;;;;
2022/01/29 07:27:16;;;;;;;64.7;44.7;;;;;;;7.4;100.0;102220;;;;
2022/01/29 07:33:16;;;;;;;65.4;46.4;;;;;;;7.3;100.0;102220;;;;
2022/01/29 07:35:16;;;;;;;65.4;46.4;;;;;;;7.4;100.0;102220;;;;
2022/01/29 07:39:16;;;;;;;65.4;46.4;;;;;;;7.3;100.0;102220;;;;
2022/01/29 07:41:16;;;;;;;65.4;46.4;;;;;;;7.4;100.0;102220;;;;
2022/01/29 07:47:16;;;;;;;65.4;46.4;;;;;;;7.5;100.0;102220;;;;
2022/01/29 07:53:16;;;;;;;69.3;46.9;;;;;;;7.6;100.0;102210;;;;
2022/01/29 07:55:16;;;;;;;69.3;46.9;;;;;;;7.5;100.0;102210;;;;
2022/01/29 08:01:16;;;;;;;69.3;46.9;;;;;;;7.6;100.0;102200;;;;
2022/01/29 08:05:16;;;;;;;69.3;46.9;;;;;;;7.7;100.0;102190;;;;
2022/01/29 08:07:16;;;;;;;69.3;46.9;;;;;;;7.6;100.0;102190;;;;
2022/01/29 08:17:16;;;;;;;66.9;47.3;;;;;;;7.7;100.0;102180;;;;
2022/01/29 08:19:16;;;;;;;66.9;47.3;;;;;;;7.6;100.0;102180;;;;
2022/01/29 08:21:16;;;;;;;66.9;47.3;;;;;;;7.7;100.0;102170;;;;
2022/01/29 08:25:16;;;;;;;66.9;47.3;;;;;;;7.8;100.0;102170;;;;
2022/01/29 08:33:18;;;;;;;62.0;45.1;;;;;;;7.9;100.0;102170;;;;
2022/01/29 08:39:16;;;;;;;62.0;45.1;;;;;;;8.0;100.0;102160;;;;
2022/01/29 08:41:16;;;;;;;62.0;45.1;;;;;;;7.8;100.0;102160;;;;
2022/01/29 08:45:16;;;;;;;62.0;45.1;;;;;;;7.9;100.0;102160;;;;
2022/01/29 08:47:17;;;;;;;62.0;45.1;;;;;;;8.1;100.0;102170;;;;
2022/01/29 08:49:16;;;;;;;56.5;43.3;;;;;;;8.0;100.0;102170;;;;
2022/01/29 08:53:17;;;;;;;56.5;43.3;;;;;;;8.1;100.0;102160;;;;
2022/01/29 08:57:16;;;;;;;56.5;43.3;;;;;;;8.0;100.0;102140;;;;
2022/01/29 09:01:17;;;;;;;56.5;43.3;;;;;;;8.1;100.0;102140;;;;
2022/01/29 09:19:16;;;;;;;51.5;40.7;;;;;;;8.2;100.0;102120;;;;
2022/01/29 09:29:16;;;;;;;47.0;40.8;;;;;;;8.3;100.0;102120;;;;
2022/01/29 09:33:16;;;;;;;47.0;40.8;;;;;;;8.4;100.0;102120;;;;
2022/01/29 09:35:17;;;;;;;47.0;40.8;;;;;;;8.3;100.0;102120;;;;
2022/01/29 09:41:17;;;;;;;47.0;40.8;;;;;;;8.4;100.0;102120;;;;
2022/01/29 09:45:16;;;;;;;47.0;40.8;;;;;;;8.3;100.0;102130;;;;
2022/01/29 09:47:17;;;;;;;47.0;40.8;;;;;;;8.4;100.0;102130;;;;
2022/01/29 09:49:16;;;;;;;38.3;34.0;;;;;;;8.5;100.0;102120;;;;
2022/01/29 09:55:16;;;;;;;38.3;34.0;;;;;;;8.6;100.0;102130;;;;
2022/01/29 10:01:16;;;;;;;38.3;34.0;;;;;;;8.5;100.0;102130;;;;
2022/01/29 10:03:16;;;;;;;38.3;34.0;;;;;;;8.6;100.0;102140;;;;
2022/01/29 10:07:16;;;;;;;38.3;34.0;;;;;;;8.5;100.0;102130;;;;
2022/01/29 10:09:16;;;;;;;32.5;29.1;;;;;;;8.6;100.0;102130;;;;
2022/01/29 10:13:16;;;;;;;32.5;29.1;;;;;;;8.7;100.0;102120;;;;
2022/01/29 10:15:17;;;;;;;32.5;29.1;;;;;;;8.6;100.0;102120;;;;
2022/01/29 10:17:16;;;;;;;32.5;29.1;;;;;;;8.7;100.0;102120;;;;
2022/01/29 10:27:26;;;;;;;32.5;29.1;;;;;;;8.8;100.0;102110;;;;
2022/01/29 10:29:16;;;;;;;28.4;25.6;;;;;;;8.9;100.0;102090;;;;
2022/01/29 10:31:16;;;;;;;28.4;25.6;;;;;;;8.8;100.0;102090;;;;
2022/01/29 10:34:23;;;;;;;28.4;25.6;;;;;;;8.8;100.0;102070;;;;
2022/01/29 10:35:16;;;;;;;28.4;25.6;;;;;;;8.9;100.0;102080;;;;
2022/01/29 10:37:16;;;;;;;28.4;25.6;;;;;;;8.8;100.0;102070;;;;
2022/01/29 10:39:16;;;;;;;28.4;25.6;;;;;;;8.9;100.0;102070;;;;
2022/01/29 10:43:16;;;;;;;28.4;25.6;;;;;;;9.0;100.0;102070;;;;
2022/01/29 10:45:16;;;;;;;28.4;25.6;;;;;;;9.1;100.0;102060;;;;
2022/01/29 10:57:16;;;;;;;22.6;20.5;;;;;;;9.2;100.0;102060;;;;
2022/01/29 10:59:16;;;;;;;22.6;20.5;;;;;;;9.3;100.0;102060;;;;
2022/01/29 11:03:16;;;;;;;22.6;20.5;;;;;;;9.2;100.0;102060;;;;
2022/01/29 11:09:16;;;;;;;19.6;17.8;;;;;;;9.3;100.0;102050;;;;
2022/01/29 11:11:26;;;;;;;19.6;17.8;;;;;;;9.4;100.0;102050;;;;
2022/01/29 11:17:16;;;;;;;19.6;17.8;;;;;;;9.3;100.0;102040;;;;
2022/01/29 11:25:16;;;;;;;19.6;17.8;;;;;;;9.4;100.0;102030;;;;
2022/01/29 11:31:18;;;;;;;11.6;10.6;;;;;;;9.3;100.0;102020;;;;
2022/01/29 11:35:16;;;;;;;11.6;10.6;;;;;;;9.4;100.0;101990;;;;
2022/01/29 11:39:16;;;;;;;11.6;10.6;;;;;;;9.6;100.0;101990;;;;
2022/01/29 11:49:16;;;;;;;6.9;6.2;;;;;;;9.8;100.0;101960;;;;
2022/01/29 11:51:16;;;;;;;6.9;6.2;;;;;;;9.7;100.0;101950;;;;
2022/01/29 11:55:16;;;;;;;6.9;6.2;;;;;;;9.9;100.0;101950;;;;
2022/01/29 11:57:16;;;;;;;6.9;6.2;;;;;;;9.8;100.0;101940;;;;
2022/01/29 12:01:16;;;;;;;6.9;6.2;;;;;;;9.9;100.0;101950;;;;
2022/01/29 12:03:16;;;;;;;6.9;6.2;;;;;;;9.8;100.0;101950;;;;
2022/01/29 12:05:16;;;;;;;6.9;6.2;;;;;;;9.7;100.0;101960;;;;
2022/01/29 12:09:18;;;;;;;5.5;4.5;;;;;;;9.8;100.0;101950;;;;
2022/01/29 12:19:16;;;;;;;5.5;4.5;;;;;;;9.7;100.0;101930;;;;
2022/01/29 12:21:16;;;;;;;5.5;4.5;;;;;;;9.8;100.0;101940;;;;
2022/01/29 12:23:16;;;;;;;5.5;4.5;;;;;;;9.7;100.0;101940;;;;
2022/01/29 12:35:19;;;;;;;5.0;3.9;;;;;;;9.9;100.0;101940;;;;
2022/01/29 12:37:16;;;;;;;5.0;3.9;;;;;;;9.8;100.0;101930;;;;
2022/01/29 12:43:16;;;;;;;5.0;3.9;;;;;;;9.9;100.0;101900;;;;
2022/01/29 12:45:16;;;;;;;5.0;3.9;;;;;;;9.8;100.0;101900;;;;
2022/01/29 12:49:16;;;;;;;5.2;4.4;;;;;;;9.9;100.0;101880;;;;
2022/01/29 12:51:16;;;;;;;5.2;4.4;;;;;;;9.8;100.0;101880;;;;
2022/01/29 12:53:16;;;;;;;5.2;4.4;;;;;;;9.9;100.0;101870;;;;
2022/01/29 12:57:16;;;;;;;5.2;4.4;;;;;;;9.8;100.0;101880;;;;
2022/01/29 12:59:16;;;;;;;5.2;4.4;;;;;;;9.9;100.0;101890;;;;
2022/01/29 13:05:16;;;;;;;5.2;4.4;;;;;;;10.0;100.0;101880;;;;
2022/01/29 13:09:16;;;;;;;3.9;3.3;;;;;;;10.1;100.0;101860;;;;
2022/01/29 13:11:16;;;;;;;3.9;3.3;;;;;;;10.0;100.0;101860;;;;
2022/01/29 13:13:16;;;;;;;3.9;3.3;;;;;;;9.9;100.0;101880;;;;
2022/01/29 13:17:16;;;;;;;3.9;3.3;;;;;;;10.1;100.0;101870;;;;
2022/01/29 13:21:16;;;;;;;3.9;3.3;;;;;;;10.0;100.0;101900;;;;
2022/01/29 13:25:17;;;;;;;3.9;3.3;;;;;;;10.1;100.0;101870;;;;
2022/01/29 13:29:17;;;;;;;3.5;3.0;;;;;;;10.2;100.0;101870;;;;
2022/01/29 13:31:17;;;;;;;3.5;3.0;;;;;;;10.1;100.0;101860;;;;
2022/01/29 13:37:16;;;;;;;3.5;3.0;;;;;;;10.2;100.0;101870;;;;
2022/01/29 13:41:16;;;;;;;3.5;3.0;;;;;;;10.1;100.0;101870;;;;
2022/01/29 13:45:19;;;;;;;3.5;3.0;;;;;;;10.2;100.0;101860;;;;
2022/01/29 13:51:16;;;;;;;4.0;2.7;;;;;;;10.3;100.0;101850;;;;
2022/01/29 13:53:16;;;;;;;4.0;2.7;;;;;;;10.2;100.0;101870;;;;
2022/01/29 14:03:16;;;;;;;4.0;2.7;;;;;;;10.3;100.0;101880;;;;
2022/01/29 14:13:17;;;;;;;2.7;2.5;;;;;;;10.4;100.0;101880;;;;
2022/01/29 14:15:16;;;;;;;2.7;2.5;;;;;;;10.2;100.0;101870;;;;
2022/01/29 14:17:16;;;;;;;2.7;2.5;;;;;;;10.3;100.0;101890;;;;
2022/01/29 14:21:16;;;;;;;2.7;2.5;;;;;;;10.2;100.0;101890;;;;
2022/01/29 14:27:16;;;;;;;2.6;2.1;;;;;;;10.3;100.0;101900;;;;
2022/01/29 14:29:16;;;;;;;2.6;2.1;;;;;;;10.4;100.0;101890;;;;
2022/01/29 14:31:16;;;;;;;2.6;2.1;;;;;;;10.2;100.0;101890;;;;
2022/01/29 14:33:16;;;;;;;2.6;2.1;;;;;;;10.4;100.0;101890;;;;
2022/01/29 14:45:17;;;;;;;2.6;2.1;;;;;;;10.3;100.0;101900;;;;
2022/01/29 14:49:16;;;;;;;2.7;2.3;;;;;;;10.4;100.0;101870;;;;
2022/01/29 14:57:16;;;;;;;2.7;2.3;;;;;;;10.5;100.0;101900;;;;
2022/01/29 15:01:16;;;;;;;2.7;2.3;;;;;;;10.4;100.0;101880;;;;
2022/01/29 15:09:17;;;;;;;2.9;2.6;;;;;;;10.5;100.0;101890;;;;
2022/01/29 15:11:26;;;;;;;2.9;2.6;;;;;;;10.4;100.0;101890;;;;
2022/01/29 15:13:16;;;;;;;2.9;2.6;;;;;;;10.5;100.0;101890;;;;
2022/01/29 15:17:16;;;;;;;2.9;2.6;;;;;;;10.4;100.0;101880;;;;
2022/01/29 15:19:16;;;;;;;2.9;2.6;;;;;;;10.5;100.0;101860;;;;
2022/01/29 15:21:16;;;;;;;2.9;2.6;;;;;;;10.6;100.0;101860;;;;
2022/01/29 15:27:17;;;;;;;3.1;2.2;;;;;;;10.5;100.0;101850;;;;
2022/01/29 15:29:16;;;;;;;3.1;2.2;;;;;;;10.4;100.0;101850;;;;
2022/01/29 15:37:19;;;;;;;3.1;2.2;;;;;;;10.6;100.0;101840;;;;
2022/01/29 15:39:25;;;;;;;3.1;2.2;;;;;;;10.5;100.0;101850;;;;
2022/01/29 15:41:16;;;;;;;3.1;2.2;;;;;;;10.6;100.0;101860;;;;
2022/01/29 15:43:16;;;;;;;3.1;2.2;;;;;;;10.5;100.0;101860;;;;
2022/01/29 15:51:16;;;;;;;4.8;2.0;;;;;;;10.6;100.0;101860;;;;
2022/01/29 15:53:16;;;;;;;4.8;2.0;;;;;;;10.5;100.0;101850;;;;
2022/01/29 15:57:19;;;;;;;4.8;2.0;;;;;;;10.6;100.0;101860;;;;
2022/01/29 15:59:16;;;;;;;4.8;2.0;;;;;;;10.5;100.0;101860;;;;
2022/01/29 16:01:17;;;;;;;4.8;2.0;;;;;;;10.6;100.0;101860;;;;
2022/01/29 16:03:17;;;;;;;4.8;2.0;;;;;;;10.5;100.0;101870;;;;
2022/01/29 16:05:16;;;;;;;4.8;2.0;;;;;;;10.4;100.0;101870;;;;
2022/01/29 16:07:16;;;;;;;6.5;2.4;;;;;;;10.5;100.0;101860;;;;
2022/01/29 16:13:16;;;;;;;6.5;2.4;;;;;;;10.4;100.0;101870;;;;
2022/01/29 16:15:16;;;;;;;6.5;2.4;;;;;;;10.3;100.0;101880;;;;
2022/01/29 16:17:16;;;;;;;6.5;2.4;;;;;;;10.4;100.0;101890;;;;
2022/01/29 16:21:16;;;;;;;6.5;2.4;;;;;;;10.3;100.0;101880;;;;
2022/01/29 16:25:16;;;;;;;6.5;2.4;;;;;;;10.2;100.0;101900;;;;
2022/01/29 16:31:16;;;;;;;3.7;2.2;;;;;;;10.3;100.0;101890;;;;
2022/01/29 16:33:20;;;;;;;3.7;2.2;;;;;;;10.2;100.0;101890;;;;
2022/01/29 16:35:16;;;;;;;3.7;2.2;;;;;;;10.3;100.0;101900;;;;
2022/01/29 16:39:16;;;;;;;3.7;2.2;;;;;;;10.4;100.0;101900;;;;
2022/01/29 16:45:16;;;;;;;3.7;2.2;;;;;;;10.5;100.0;101920;;;;
2022/01/29 16:49:16;;;;;;;4.9;2.5;;;;;;;10.4;100.0;101920;;;;
2022/01/29 16:57:16;;;;;;;4.9;2.5;;;;;;;10.3;100.0;101920;;;;
2022/01/29 16:59:16;;;;;;;4.9;2.5;;;;;;;10.4;100.0;101930;;;;
2022/01/29 17:09:16;;;;;;;6.2;2.9;;;;;;;10.3;100.0;101930;;;;
2022/01/29 17:13:16;;;;;;;6.2;2.9;;;;;;;10.4;100.0;101950;;;;
2022/01/29 17:21:16;;;;;;;6.2;2.9;;;;;;;10.3;100.0;101960;;;;
2022/01/29 17:25:16;;;;;;;6.2;2.9;;;;;;;10.4;100.0;101980;;;;
2022/01/29 17:33:16;;;;;;;7.1;2.8;;;;;;;10.4;100.0;102000;;;;
2022/01/29 17:35:16;;;;;;;7.1;2.8;;;;;;;10.2;100.0;102000;;;;
2022/01/29 17:37:16;;;;;;;7.1;2.8;;;;;;;10.3;100.0;101990;;;;
2022/01/29 17:41:19;;;;;;;7.1;2.8;;;;;;;10.2;100.0;102000;;;;
2022/01/29 17:43:17;;;;;;;7.1;2.8;;;;;;;10.3;100.0;102000;;;;
2022/01/29 17:45:16;;;;;;;7.1;2.8;;;;;;;10.2;100.0;102030;;;;
2022/01/29 17:49:19;;;;;;;12.9;3.7;;;;;;;10.1;100.0;102040;;;;
2022/01/29 17:51:16;;;;;;;12.9;3.7;;;;;;;10.2;100.0;102040;;;;
2022/01/29 17:53:16;;;;;;;12.9;3.7;;;;;;;10.1;100.0;102040;;;;
2022/01/29 18:01:16;;;;;;;12.9;3.7;;;;;;;10.0;100.0;102080;;;;
2022/01/29 18:03:16;;;;;;;12.9;3.7;;;;;;;9.9;100.0;102070;;;;
2022/01/29 18:09:17;;;;;;;14.7;5.1;;;;;;;9.8;100.0;102090;;;;
2022/01/29 18:15:17;;;;;;;14.7;5.1;;;;;;;9.9;100.0;102090;;;;
2022/01/29 18:17:16;;;;;;;14.7;5.1;;;;;;;9.8;100.0;102090;;;;
2022/01/29 18:19:16;;;;;;;14.7;5.1;;;;;;;9.7;100.0;102090;;;;
2022/01/29 18:21:16;;;;;;;14.7;5.1;;;;;;;9.6;100.0;102090;;;;
2022/01/29 18:25:16;;;;;;;14.7;5.1;;;;;;;9.5;100.0;102080;;;;
2022/01/29 18:33:17;;;;;;;18.3;5.3;;;;;;;9.4;100.0;102110;;;;
2022/01/29 18:39:18;;;;;;;18.3;5.3;;;;;;;9.3;100.0;102130;;;;
2022/01/29 18:45:16;;;;;;;18.3;5.3;;;;;;;9.2;100.0;102130;;;;
2022/01/29 18:49:16;;;;;;;17.5;5.5;;;;;;;9.1;100.0;102130;;;;
2022/01/29 18:53:16;;;;;;;17.5;5.5;;;;;;;9.0;100.0;102130;;;;
2022/01/29 18:55:16;;;;;;;17.5;5.5;;;;;;;9.1;100.0;102140;;;;
2022/01/29 18:59:16;;;;;;;17.5;5.5;;;;;;;9.0;100.0;102140;;;;
2022/01/29 19:05:17;;;;;;;17.5;5.5;;;;;;;8.9;100.0;102150;;;;
2022/01/29 19:07:16;;;;;;;14.3;5.4;;;;;;;9.0;100.0;102160;;;;
2022/01/29 19:09:18;;;;;;;14.3;5.4;;;;;;;8.9;100.0;102160;;;;
2022/01/29 19:17:16;;;;;;;14.3;5.4;;;;;;;8.8;100.0;102180;;;;
2022/01/29 19:19:16;;;;;;;14.3;5.4;;;;;;;8.7;100.0;102180;;;;
2022/01/29 19:23:19;;;;;;;14.3;5.4;;;;;;;8.6;100.0;102190;;;;
2022/01/29 19:27:18;;;;;;;17.4;6.4;;;;;;;8.5;100.0;102190;;;;
2022/01/29 19:37:16;;;;;;;17.4;6.4;;;;;;;8.4;100.0;102200;;;;
2022/01/29 19:41:16;;;;;;;17.4;6.4;;;;;;;8.3;100.0;102190;;;;
2022/01/29 19:53:16;;;;;;;20.5;6.9;;;;;;;8.2;100.0;102210;;;;
2022/01/29 20:25:16;;;;;;;22.7;7.4;;;;;;;8.3;100.0;102230;;;;
2022/01/29 20:37:16;;;;;;;21.9;7.0;;;;;;;8.2;100.0;102250;;;;
2022/01/29 20:39:16;;;;;;;21.9;7.0;;;;;;;8.3;100.0;102270;;;;
2022/01/29 20:41:16;;;;;;;21.9;7.0;;;;;;;8.2;100.0;102260;;;;
2022/01/29 20:47:16;;;;;;;17.2;6.0;;;;;;;8.1;100.0;102260;;;;
2022/01/29 20:49:16;;;;;;;17.2;6.0;;;;;;;8.2;100.0;102260;;;;
2022/01/29 20:55:16;;;;;;;17.2;6.0;;;;;;;8.1;100.0;102270;;;;
2022/01/29 20:57:16;;;;;;;17.2;6.0;;;;;;;8.2;100.0;102270;;;;
2022/01/29 21:05:17;;;;;;;17.2;6.0;;;;;;;8.1;100.0;102270;;;;
2022/01/29 21:09:16;;;;;;;19.4;6.5;;;;;;;8.0;100.0;102280;;;;
2022/01/29 21:11:16;;;;;;;19.4;6.5;;;;;;;8.1;100.0;102280;;;;
2022/01/29 21:15:17;;;;;;;19.4;6.5;;;;;;;8.2;100.0;102280;;;;
2022/01/29 21:17:16;;;;;;;19.4;6.5;;;;;;;8.1;100.0;102290;;;;
2022/01/29 21:23:16;;;;;;;19.4;6.5;;;;;;;8.0;100.0;102290;;;;
2022/01/29 21:25:18;;;;;;;19.4;6.5;;;;;;;7.8;100.0;102290;;;;
2022/01/29 21:27:17;;;;;;;19.7;6.5;;;;;;;7.9;100.0;102290;;;;
2022/01/29 21:29:16;;;;;;;19.7;6.5;;;;;;;7.8;100.0;102290;;;;
2022/01/29 21:39:16;;;;;;;19.7;6.5;;;;;;;7.7;100.0;102300;;;;
2022/01/29 21:41:16;;;;;;;19.7;6.5;;;;;;;7.6;100.0;102300;;;;
2022/01/29 21:47:16;;;;;;;21.2;6.6;;;;;;;7.5;100.0;102300;;;;
2022/01/29 21:57:16;;;;;;;21.2;6.6;;;;;;;7.4;100.0;102300;;;;
2022/01/29 21:59:16;;;;;;;21.2;6.6;;;;;;;7.5;100.0;102310;;;;
2022/01/29 22:01:16;;;;;;;21.2;6.6;;;;;;;7.4;100.0;102310;;;;
2022/01/29 22:09:16;;;;;;;22.1;6.4;;;;;;;7.3;100.0;102320;;;;
2022/01/29 22:11:16;;;;;;;22.1;6.4;;;;;;;7.4;100.0;102320;;;;
2022/01/29 22:13:16;;;;;;;22.1;6.4;;;;;;;7.3;100.0;102320;;;;
2022/01/29 22:17:16;;;;;;;22.1;6.4;;;;;;;7.2;100.0;102330;;;;
2022/01/29 22:25:16;;;;;;;22.1;6.4;;;;;;;7.1;100.0;102330;;;;
2022/01/29 22:35:16;;;;;;;15.7;6.1;;;;;;;7.0;100.0;102340;;;;
2022/01/29 22:43:16;;;;;;;15.7;6.1;;;;;;;6.9;100.0;102350;;;;
2022/01/29 22:47:16;;;;;;;19.5;6.9;;;;;;;6.8;100.0;102350;;;;
2022/01/29 22:49:17;;;;;;;19.5;6.9;;;;;;;6.9;100.0;102350;;;;
2022/01/29 22:53:16;;;;;;;19.5;6.9;;;;;;;6.8;100.0;102360;;;;
2022/01/29 23:05:16;;;;;;;19.5;6.9;;;;;;;6.7;100.0;102370;;;;
2022/01/29 23:07:17;;;;;;;18.2;6.1;;;;;;;6.8;100.0;102380;;;;
2022/01/29 23:09:17;;;;;;;18.2;6.1;;;;;;;6.7;100.0;102380;;;;
2022/01/29 23:11:21;;;;;;;18.2;6.1;;;;;;;6.8;100.0;102380;;;;
2022/01/29 23:13:24;;;;;;;18.2;6.1;;;;;;;6.7;100.0;102390;;;;
2022/01/29 23:19:23;;;;;;;18.2;6.1;;;;;;;6.6;100.0;102390;;;;
2022/01/29 23:23:21;;;;;;;18.2;6.1;;;;;;;6.5;100.0;102380;;;;
2022/01/29 23:27:16;;;;;;;20.2;6.9;;;;;;;6.6;100.0;102380;;;;
2022/01/29 23:39:18;;;;;;;20.2;6.9;;;;;;;6.4;100.0;102390;;;;
2022/01/29 23:41:18;;;;;;;20.2;6.9;;;;;;;6.5;100.0;102390;;;;
2022/01/29 23:49:23;;;;;;;25.2;7.1;;;;;;;6.4;100.0;102390;;;;
2022/01/29 23:53:19;;;;;;;25.2;7.1;;;;;;;6.3;100.0;102400;;;;
2022/01/29 23:57:16;;;;;;;25.2;7.1;;;;;;;6.4;100.0;102410;;;;
2022/01/29 23:59:16;;;;;;;25.2;7.1;;;;;;;6.3;100.0;102410;;;;
